Cathedral City, California
Current Conditions -  °F | °C
As of 4:53 AM on Sunday 23 Nov 2014 (Local Time) from KPSP Reporting Station
Clear Clear  
Wind Chill: 56°   Ceiling: Unl
Heat Index: 56°   Visibility: 10mi
Dew Point: 40°   Wind: 9mph
Humidity: 55%   Direction: 320°NW
Pressure: 30.05"   Gusts: NA
Location:  33.78°N, 116.46°W
Report Text: KPSP 231253Z AUTO 32008KT 10SM CLR 13/04 A3005 RMK AO2 SLP175 T01330044 TSNO
Loading
Personal Weather Stations






























Interactive Weather Map New forecast layout! Learn more

10-Day Weather Forecast

Advertisements
Track Severe Weather on mobile